createdAt,value
2023-02-09T00:01:19.914Z,15.52
2023-02-09T00:03:48.232Z,14.15
2023-02-09T00:06:18.843Z,11.57
2023-02-09T00:08:51.270Z,11.68
2023-02-09T00:11:44.521Z,12.73
2023-02-09T00:14:14.378Z,12.93
2023-02-09T00:16:42.998Z,13.85
2023-02-09T00:19:11.805Z,12.70
2023-02-09T00:21:40.204Z,17.40
2023-02-09T00:24:10.694Z,13.32
2023-02-09T00:26:39.322Z,14.35
2023-02-09T00:29:07.451Z,12.50
2023-02-09T00:31:37.298Z,20.05
2023-02-09T00:34:05.867Z,11.57
2023-02-09T00:36:34.576Z,15.80
2023-02-09T00:39:02.847Z,17.88
2023-02-09T00:41:48.754Z,15.32
2023-02-09T00:44:16.898Z,13.13
2023-02-09T00:46:46.469Z,17.52
2023-02-09T00:49:14.609Z,15.88
2023-02-09T00:51:42.690Z,10.60
2023-02-09T00:54:10.723Z,14.38
2023-02-09T00:56:39.446Z,20.75
2023-02-09T00:59:07.602Z,15.38
2023-02-09T01:01:35.882Z,14.27
2023-02-09T01:04:05.777Z,16.13
2023-02-09T01:06:34.442Z,12.13
2023-02-09T01:09:02.796Z,11.30
2023-02-09T01:11:30.881Z,15.75
2023-02-09T01:14:00.833Z,11.43
2023-02-09T01:16:31.609Z,13.80
2023-02-09T01:19:01.991Z,15.30
2023-02-09T01:21:32.625Z,14.77
2023-02-09T01:24:00.946Z,14.93
2023-02-09T01:26:29.115Z,16.05
2023-02-09T01:28:57.080Z,13.77
2023-02-09T01:31:27.460Z,14.55
2023-02-09T01:33:57.655Z,15.05
2023-02-09T01:36:29.512Z,13.52
2023-02-09T01:39:01.191Z,11.63
2023-02-09T01:41:29.556Z,16.38
2023-02-09T01:44:00.387Z,15.45
2023-02-09T01:46:29.940Z,15.85
2023-02-09T01:49:06.367Z,15.02
2023-02-09T01:51:37.878Z,18.77
2023-02-09T01:54:12.439Z,17.05
2023-02-09T01:56:43.985Z,11.48
2023-02-09T01:59:15.905Z,14.63
2023-02-09T02:01:45.030Z,15.20
2023-02-09T02:04:14.222Z,15.70
2023-02-09T02:06:42.421Z,12.35
2023-02-09T02:09:14.276Z,14.40
2023-02-09T02:11:46.840Z,12.20
2023-02-09T02:14:29.652Z,15.97
2023-02-09T02:17:08.127Z,14.48
2023-02-09T02:20:26.746Z,13.35
2023-02-09T02:23:04.908Z,16.38
2023-02-09T02:26:09.396Z,18.77
2023-02-09T02:31:49.442Z,12.90
2023-02-09T02:34:26.663Z,17.40
2023-02-09T02:37:02.941Z,15.07
2023-02-09T02:39:38.209Z,13.57
2023-02-09T02:42:29.791Z,13.48
2023-02-09T02:45:05.234Z,16.83
2023-02-09T02:47:37.909Z,20.73
2023-02-09T02:50:13.332Z,17.75
2023-02-09T02:52:47.324Z,13.75
2023-02-09T02:55:18.750Z,13.48
2023-02-09T02:57:52.562Z,15.38
2023-02-09T03:00:24.813Z,18.33
2023-02-09T03:02:56.560Z,20.58
2023-02-09T03:05:27.605Z,15.73
2023-02-09T03:07:55.735Z,18.00
2023-02-09T03:10:28.313Z,16.08
2023-02-09T03:13:09.721Z,13.40
2023-02-09T03:15:50.097Z,17.95
2023-02-09T03:18:27.295Z,15.95
2023-02-09T03:21:00.109Z,13.85
2023-02-09T03:23:33.988Z,15.95
2023-02-09T03:26:08.699Z,16.30
2023-02-09T03:28:41.207Z,19.92
2023-02-09T03:31:10.317Z,16.80
2023-02-09T03:33:40.510Z,14.93
2023-02-09T03:36:15.339Z,17.60
2023-02-09T03:38:43.783Z,17.85
2023-02-09T03:41:11.898Z,15.13
2023-02-09T03:43:57.297Z,11.98
2023-02-09T03:46:25.596Z,13.95
2023-02-09T03:48:53.924Z,15.13
2023-02-09T03:51:23.665Z,16.48
2023-02-09T03:53:51.632Z,18.27
2023-02-09T03:56:19.574Z,17.42
2023-02-09T03:58:47.569Z,14.82
2023-02-09T04:01:15.719Z,15.60
2023-02-09T04:03:43.992Z,20.48
2023-02-09T04:06:11.999Z,16.65
2023-02-09T04:08:43.125Z,12.68
2023-02-09T04:11:11.335Z,13.30
2023-02-09T04:13:39.333Z,17.10
2023-02-09T04:16:07.786Z,17.50
2023-02-09T04:18:35.720Z,15.10
2023-02-09T04:21:03.577Z,14.55
2023-02-09T04:23:31.465Z,17.00
2023-02-09T04:26:00.885Z,23.55
2023-02-09T04:28:28.939Z,13.60
2023-02-09T04:30:57.951Z,17.85
2023-02-09T04:33:26.514Z,17.40
2023-02-09T04:35:54.666Z,15.00
2023-02-09T04:38:22.936Z,21.95
2023-02-09T04:40:53.296Z,17.35
2023-02-09T04:43:22.894Z,16.55
2023-02-09T04:45:51.324Z,18.08
2023-02-09T04:48:21.498Z,15.23
2023-02-09T04:50:50.094Z,14.48
2023-02-09T04:53:18.596Z,16.60
2023-02-09T04:55:48.230Z,15.43
2023-02-09T04:58:36.370Z,15.63
2023-02-09T05:01:06.610Z,14.45
2023-02-09T05:03:35.019Z,13.73
2023-02-09T05:06:05.129Z,15.35
2023-02-09T05:08:33.873Z,15.60
2023-02-09T05:11:01.971Z,16.52
2023-02-09T05:13:30.361Z,16.52
2023-02-09T05:15:58.339Z,16.50
2023-02-09T05:18:27.779Z,12.35
2023-02-09T05:20:55.761Z,12.30
2023-02-09T05:23:23.706Z,15.68
2023-02-09T05:25:52.339Z,16.38
2023-02-09T05:28:20.332Z,14.77
2023-02-09T05:30:49.082Z,17.17
2023-02-09T05:33:17.348Z,21.92
2023-02-09T05:35:46.961Z,12.77
2023-02-09T05:38:15.031Z,18.40
2023-02-09T05:40:45.131Z,12.23
2023-02-09T05:43:13.474Z,12.35
2023-02-09T05:45:41.516Z,11.35
2023-02-09T05:48:09.711Z,20.15
2023-02-09T05:50:37.765Z,13.88
2023-02-09T05:53:09.704Z,11.18
2023-02-09T05:55:37.937Z,12.02
2023-02-09T05:58:06.093Z,14.55
2023-02-09T06:00:34.174Z,14.65
2023-02-09T06:03:02.878Z,16.42
2023-02-09T06:05:30.900Z,14.93
2023-02-09T06:07:59.125Z,14.82
2023-02-09T06:10:28.699Z,13.50
2023-02-09T06:12:57.180Z,13.18
2023-02-09T06:15:26.583Z,15.45
2023-02-09T06:17:54.881Z,16.17
2023-02-09T06:20:23.825Z,14.80
2023-02-09T06:22:52.541Z,14.05
2023-02-09T06:25:21.332Z,15.70
2023-02-09T06:27:51.379Z,13.57
2023-02-09T06:30:20.238Z,14.98
2023-02-09T06:32:49.234Z,11.85
2023-02-09T06:35:18.024Z,13.50
2023-02-09T06:37:46.066Z,12.35
2023-02-09T06:40:14.582Z,15.05
2023-02-09T06:42:45.428Z,14.65
2023-02-09T06:45:17.527Z,17.70
2023-02-09T06:47:47.101Z,11.45
2023-02-09T06:50:17.511Z,18.08
2023-02-09T06:52:46.457Z,18.77
2023-02-09T06:55:15.603Z,12.88
2023-02-09T06:57:43.576Z,15.90
2023-02-09T07:00:15.889Z,14.15
2023-02-09T07:02:45.039Z,14.00
2023-02-09T07:05:14.007Z,14.95
2023-02-09T07:07:42.950Z,17.63
2023-02-09T07:10:13.361Z,14.15
2023-02-09T07:12:43.363Z,15.07
2023-02-09T07:15:13.919Z,17.50
2023-02-09T07:17:43.502Z,18.50
2023-02-09T07:20:13.387Z,20.67
2023-02-09T07:22:42.124Z,14.73
2023-02-09T07:25:11.062Z,18.15
2023-02-09T07:27:39.174Z,19.77
2023-02-09T07:30:08.377Z,15.63
2023-02-09T07:32:38.402Z,15.25
2023-02-09T07:35:08.964Z,22.33
2023-02-09T07:37:37.285Z,19.65
2023-02-09T07:40:06.017Z,14.82
2023-02-09T07:42:34.519Z,14.80
2023-02-09T07:45:04.473Z,17.55
2023-02-09T07:47:32.742Z,15.48
2023-02-09T07:50:00.813Z,15.25
2023-02-09T07:52:30.629Z,16.92
2023-02-09T07:54:58.837Z,15.50
2023-02-09T07:57:28.433Z,17.30
2023-02-09T07:59:57.004Z,16.73
2023-02-09T08:02:29.483Z,17.80
2023-02-09T08:05:00.480Z,15.50
2023-02-09T08:07:30.288Z,16.13
2023-02-09T08:09:58.747Z,18.17
2023-02-09T08:12:44.508Z,13.23
2023-02-09T08:15:15.723Z,22.15
2023-02-09T08:17:44.476Z,18.98
2023-02-09T08:20:17.125Z,17.25
2023-02-09T08:22:50.028Z,16.92
2023-02-09T08:25:21.866Z,16.13
2023-02-09T08:27:52.137Z,13.57
2023-02-09T08:30:21.392Z,16.55
2023-02-09T08:32:49.413Z,21.10
2023-02-09T08:35:18.125Z,16.77
2023-02-09T08:37:47.981Z,24.02
2023-02-09T08:40:16.874Z,15.13
2023-02-09T08:42:45.338Z,22.05
2023-02-09T08:45:13.903Z,16.80
2023-02-09T08:47:42.064Z,12.90
2023-02-09T08:50:11.618Z,15.27
2023-02-09T08:52:40.057Z,15.52
2023-02-09T08:55:11.098Z,22.15
2023-02-09T08:57:44.510Z,14.68
2023-02-09T09:00:15.250Z,15.85
2023-02-09T09:02:43.313Z,15.57
2023-02-09T09:05:12.037Z,16.58
2023-02-09T09:07:40.345Z,17.75
2023-02-09T09:10:11.217Z,19.90
2023-02-09T09:12:39.674Z,15.05
2023-02-09T09:15:09.187Z,18.67
2023-02-09T09:17:37.446Z,17.45
2023-02-09T09:20:07.419Z,26.05
2023-02-09T09:22:35.575Z,17.60
2023-02-09T09:25:03.837Z,20.90
2023-02-09T09:27:35.016Z,19.13
2023-02-09T09:30:04.000Z,17.80
2023-02-09T09:32:33.405Z,15.98
2023-02-09T09:35:04.488Z,19.67
2023-02-09T09:37:33.926Z,17.88
2023-02-09T09:40:02.060Z,20.42
2023-02-09T09:42:36.977Z,21.50
2023-02-09T09:45:07.113Z,28.83
2023-02-09T09:47:39.176Z,18.90
2023-02-09T09:50:14.377Z,19.83
2023-02-09T09:52:47.630Z,21.00
2023-02-09T09:55:23.564Z,23.10
2023-02-09T09:57:55.125Z,21.52
2023-02-09T10:00:26.069Z,24.60
2023-02-09T10:02:55.089Z,27.90
2023-02-09T10:05:26.475Z,22.38
2023-02-09T10:08:01.098Z,21.00
2023-02-09T10:10:39.543Z,19.60
2023-02-09T10:13:20.431Z,25.27
2023-02-09T10:15:50.246Z,28.75
2023-02-09T10:18:25.181Z,21.73
2023-02-09T10:20:55.591Z,22.25
2023-02-09T10:23:26.713Z,25.17
2023-02-09T10:26:06.250Z,22.25
2023-02-09T10:28:40.970Z,21.05
2023-02-09T10:31:13.585Z,25.10
2023-02-09T10:33:45.282Z,26.98
2023-02-09T10:36:29.004Z,29.27
2023-02-09T10:41:43.886Z,24.98
2023-02-09T10:44:19.477Z,31.02
2023-02-09T10:46:48.217Z,22.08
2023-02-09T10:49:31.436Z,23.60
2023-02-09T10:52:17.556Z,29.17
2023-02-09T10:54:49.574Z,22.88
2023-02-09T10:57:22.673Z,31.98
2023-02-09T10:59:58.648Z,31.33
2023-02-09T11:02:35.684Z,29.25
2023-02-09T11:05:05.922Z,27.58
2023-02-09T11:07:39.408Z,24.40
2023-02-09T11:10:14.274Z,33.58
2023-02-09T11:12:43.524Z,28.50
2023-02-09T11:15:16.208Z,25.83
2023-02-09T11:17:49.310Z,31.63
2023-02-09T11:20:28.924Z,29.33
2023-02-09T11:23:34.164Z,26.67
2023-02-09T11:26:08.984Z,21.70
2023-02-09T11:28:49.866Z,27.88
2023-02-09T11:31:44.478Z,27.90
2023-02-09T11:34:29.823Z,29.02
2023-02-09T11:37:08.193Z,25.52
2023-02-09T11:39:44.505Z,24.83
2023-02-09T11:42:31.923Z,32.70
2023-02-09T11:45:08.621Z,26.48
2023-02-09T11:47:50.723Z,29.48
2023-02-09T11:50:25.468Z,29.23
2023-02-09T11:52:57.554Z,27.25
2023-02-09T11:55:32.775Z,25.30
2023-02-09T11:58:13.202Z,28.88
2023-02-09T12:00:57.829Z,29.58
2023-02-09T12:03:31.525Z,27.55
2023-02-09T12:06:00.308Z,32.88
2023-02-09T12:08:51.478Z,39.30
2023-02-09T12:11:29.076Z,33.45
2023-02-09T12:14:14.490Z,28.67
2023-02-09T12:16:46.851Z,28.70
2023-02-09T12:19:27.096Z,24.95
2023-02-09T12:21:55.047Z,30.65
2023-02-09T12:24:34.913Z,29.98
2023-02-09T12:27:03.409Z,32.90
2023-02-09T12:29:37.873Z,37.15
2023-02-09T12:32:30.713Z,35.50
2023-02-09T12:35:28.742Z,36.63
2023-02-09T12:38:17.048Z,29.98
2023-02-09T12:41:04.345Z,29.33
2023-02-09T12:43:34.024Z,33.83
2023-02-09T12:46:44.231Z,37.70
2023-02-09T12:49:20.911Z,36.03
2023-02-09T12:52:08.122Z,31.85
2023-02-09T12:54:47.351Z,36.53
2023-02-09T12:57:58.116Z,30.98
2023-02-09T13:00:54.942Z,33.33
2023-02-09T13:03:26.127Z,39.30
2023-02-09T13:05:59.978Z,28.83
2023-02-09T13:08:37.674Z,32.72
2023-02-09T13:11:19.495Z,38.38
2023-02-09T13:13:53.435Z,32.85
2023-02-09T13:16:54.746Z,33.30
2023-02-09T13:19:47.805Z,29.75
2023-02-09T13:22:46.241Z,34.78
2023-02-09T13:25:24.781Z,39.53
2023-02-09T13:27:53.034Z,30.58
2023-02-09T13:30:28.845Z,33.63
2023-02-09T13:33:05.009Z,29.73
2023-02-09T13:35:37.448Z,39.47
2023-02-09T13:38:16.805Z,30.88
2023-02-09T13:40:49.306Z,37.40
2023-02-09T13:43:19.534Z,30.38
2023-02-09T13:45:49.410Z,43.90
2023-02-09T13:48:24.624Z,41.35
2023-02-09T13:50:54.267Z,32.05
2023-02-09T13:53:24.794Z,39.35
2023-02-09T13:55:57.228Z,38.05
2023-02-09T13:58:29.141Z,35.80
2023-02-09T14:01:05.005Z,37.30
2023-02-09T14:03:40.879Z,37.20
2023-02-09T14:06:18.032Z,35.55
2023-02-09T14:08:48.614Z,39.42
2023-02-09T14:11:41.022Z,46.28
2023-02-09T14:14:21.649Z,36.60
2023-02-09T14:17:24.759Z,34.15
2023-02-09T14:19:57.441Z,37.35
2023-02-09T14:22:38.594Z,31.27
2023-02-09T14:25:19.962Z,34.03
2023-02-09T14:27:50.168Z,39.35
2023-02-09T14:30:26.760Z,32.90
2023-02-09T14:32:57.716Z,43.03
2023-02-09T14:35:29.361Z,37.60
2023-02-09T14:38:09.654Z,39.88
2023-02-09T14:40:55.644Z,35.70
2023-02-09T14:43:37.395Z,41.92
2023-02-09T14:46:06.243Z,41.40
2023-02-09T14:48:34.704Z,39.90
2023-02-09T14:51:14.097Z,41.22
2023-02-09T14:53:44.406Z,34.00
2023-02-09T14:56:22.562Z,37.92
2023-02-09T14:58:52.059Z,33.45
2023-02-09T15:01:20.128Z,39.08
2023-02-09T15:03:48.356Z,33.03
2023-02-09T15:06:16.867Z,42.75
2023-02-09T15:08:47.003Z,39.38
2023-02-09T15:11:43.132Z,41.78
2023-02-09T15:14:13.282Z,45.05
2023-02-09T15:16:41.288Z,40.95
2023-02-09T15:19:14.043Z,43.38
2023-02-09T15:21:42.135Z,42.17
2023-02-09T15:24:10.300Z,38.30
2023-02-09T15:26:38.971Z,37.63
2023-02-09T15:29:14.306Z,43.85
2023-02-09T15:31:43.716Z,49.08
2023-02-09T15:34:14.631Z,41.88
2023-02-09T15:36:42.854Z,45.65
2023-02-09T15:39:20.002Z,36.80
2023-02-09T15:42:06.259Z,47.78
2023-02-09T15:44:53.114Z,38.53
2023-02-09T15:47:38.777Z,41.88
2023-02-09T15:50:07.312Z,49.65
2023-02-09T15:52:35.887Z,51.17
2023-02-09T15:55:04.262Z,55.38
2023-02-09T15:57:33.162Z,48.85
2023-02-09T16:00:03.055Z,43.67
2023-02-09T16:02:34.196Z,44.78
2023-02-09T16:05:02.291Z,56.92
2023-02-09T16:07:30.979Z,69.65
2023-02-09T16:09:59.393Z,52.50
2023-02-09T16:12:27.534Z,45.10
2023-02-09T16:14:55.646Z,57.38
2023-02-09T16:17:25.107Z,56.13
2023-02-09T16:19:53.054Z,60.97
2023-02-09T16:22:25.118Z,63.72
2023-02-09T16:24:53.322Z,64.78
2023-02-09T16:27:25.212Z,55.63
2023-02-09T16:29:53.538Z,52.60
2023-02-09T16:32:28.598Z,54.17
2023-02-09T16:35:07.352Z,58.38
2023-02-09T16:37:45.463Z,75.65
2023-02-09T16:40:25.586Z,60.70
2023-02-09T16:42:54.338Z,63.50
2023-02-09T16:45:24.907Z,61.70
2023-02-09T16:47:59.172Z,64.28
2023-02-09T16:50:33.077Z,73.40
2023-02-09T16:53:03.096Z,65.25
2023-02-09T16:55:32.853Z,67.40
2023-02-09T16:58:03.736Z,75.82
2023-02-09T17:00:35.747Z,60.08
2023-02-09T17:03:14.181Z,63.63
2023-02-09T17:05:45.086Z,62.40
2023-02-09T17:08:18.950Z,58.70
2023-02-09T17:13:17.530Z,69.82
2023-02-09T17:15:49.112Z,64.82
2023-02-09T17:18:22.961Z,67.63
2023-02-09T17:20:55.592Z,70.97
2023-02-09T17:23:26.260Z,58.65
2023-02-09T17:25:56.011Z,74.38
2023-02-09T17:28:26.201Z,54.72
2023-02-09T17:30:58.565Z,66.82
2023-02-09T17:33:31.061Z,76.80
2023-02-09T17:38:48.437Z,75.57
2023-02-09T17:41:19.174Z,62.67
2023-02-09T17:43:47.992Z,74.35
2023-02-09T17:46:19.477Z,75.05
2023-02-09T17:48:49.785Z,69.65
2023-02-09T17:51:21.856Z,65.60
2023-02-09T17:53:50.133Z,72.65
2023-02-09T17:56:19.477Z,70.75
2023-02-09T17:58:48.316Z,68.80
2023-02-09T18:01:27.075Z,70.65
2023-02-09T18:03:58.530Z,80.45
2023-02-09T18:06:34.317Z,76.57
2023-02-09T18:09:03.373Z,71.85
2023-02-09T18:11:59.749Z,86.25
2023-02-09T18:14:28.882Z,66.80
2023-02-09T18:16:57.402Z,69.65
2023-02-09T18:19:27.240Z,83.60
2023-02-09T18:21:57.103Z,83.25
2023-02-09T18:24:27.769Z,82.13
2023-02-09T18:26:56.176Z,69.32
2023-02-09T18:29:29.062Z,83.88
2023-02-09T18:31:57.629Z,69.40
2023-02-09T18:34:27.598Z,85.10
2023-02-09T18:36:56.348Z,68.85
2023-02-09T18:39:24.750Z,64.80
2023-02-09T18:41:55.115Z,70.55
2023-02-09T18:44:29.059Z,74.70
2023-02-09T18:47:00.309Z,72.75
2023-02-09T18:49:30.202Z,68.03
2023-02-09T18:51:59.336Z,82.35
2023-02-09T18:54:28.877Z,71.65
2023-02-09T18:56:57.195Z,59.47
2023-02-09T18:59:28.988Z,66.15
2023-02-09T19:01:57.381Z,76.97
2023-02-09T19:04:25.714Z,60.10
2023-02-09T19:06:55.985Z,58.75
2023-02-09T19:09:23.966Z,88.82
2023-02-09T19:11:52.124Z,54.88
2023-02-09T19:14:38.420Z,71.35
2023-02-09T19:17:07.282Z,71.65
2023-02-09T19:19:35.303Z,78.03
2023-02-09T19:22:04.690Z,66.43
2023-02-09T19:24:32.937Z,78.80
2023-02-09T19:27:00.966Z,60.67
2023-02-09T19:29:29.755Z,77.03
2023-02-09T19:31:57.834Z,60.40
2023-02-09T19:34:26.221Z,75.95
2023-02-09T19:36:54.715Z,70.75
2023-02-09T19:39:24.033Z,57.88
2023-02-09T19:41:52.233Z,60.72
2023-02-09T19:44:20.449Z,72.57
2023-02-09T19:46:48.675Z,72.53
2023-02-09T19:49:17.109Z,70.95
2023-02-09T19:51:45.371Z,56.58
2023-02-09T19:54:13.404Z,64.20
2023-02-09T19:56:45.309Z,67.65
2023-02-09T19:59:16.954Z,65.55
2023-02-09T20:01:45.225Z,61.70
2023-02-09T20:04:14.675Z,56.70
2023-02-09T20:06:43.927Z,60.70
2023-02-09T20:09:13.478Z,62.22
2023-02-09T20:11:43.193Z,62.38
2023-02-09T20:14:12.707Z,64.00
2023-02-09T20:16:41.738Z,60.22
2023-02-09T20:19:10.923Z,58.67
2023-02-09T20:21:40.282Z,63.55
2023-02-09T20:24:12.424Z,57.63
2023-02-09T20:26:42.362Z,62.53
2023-02-09T20:29:14.351Z,67.80
2023-02-09T20:31:44.091Z,57.53
2023-02-09T20:34:16.134Z,66.38
2023-02-09T20:36:48.279Z,65.43
2023-02-09T20:39:18.908Z,53.92
2023-02-09T20:42:03.599Z,62.67
2023-02-09T20:44:52.495Z,49.67
2023-02-09T20:47:26.122Z,44.67
2023-02-09T20:50:00.368Z,42.90
2023-02-09T20:52:30.797Z,55.08
2023-02-09T20:55:00.907Z,49.08
2023-02-09T20:57:31.842Z,48.45
2023-02-09T21:00:03.312Z,43.38
2023-02-09T21:02:32.350Z,49.60
2023-02-09T21:05:01.989Z,43.70
2023-02-09T21:07:32.314Z,48.78
2023-02-09T21:10:02.821Z,47.65
2023-02-09T21:12:32.941Z,36.65
2023-02-09T21:15:04.859Z,46.03
2023-02-09T21:17:35.242Z,40.00
2023-02-09T21:20:06.919Z,42.95
2023-02-09T21:22:37.051Z,43.03
2023-02-09T21:25:07.250Z,49.28
2023-02-09T21:27:37.652Z,36.08
2023-02-09T21:30:10.183Z,60.25
2023-02-09T21:32:40.025Z,42.95
2023-02-09T21:35:10.778Z,46.65
2023-02-09T21:37:42.987Z,43.05
2023-02-09T21:40:14.616Z,36.47
2023-02-09T21:42:44.529Z,39.28
2023-02-09T21:45:48.479Z,35.33
2023-02-09T21:48:50.255Z,46.47
2023-02-09T21:51:22.555Z,39.40
2023-02-09T21:53:50.662Z,47.05
2023-02-09T21:56:19.754Z,42.97
2023-02-09T21:58:53.293Z,46.15
2023-02-09T22:01:23.673Z,40.10
2023-02-09T22:04:01.855Z,34.28
2023-02-09T22:06:41.822Z,29.90
2023-02-09T22:09:16.184Z,38.97
2023-02-09T22:12:02.440Z,36.47
2023-02-09T22:14:48.697Z,41.05
2023-02-09T22:17:29.375Z,35.50
2023-02-09T22:20:13.634Z,31.80
2023-02-09T22:22:52.320Z,40.67
2023-02-09T22:25:26.980Z,31.05
2023-02-09T22:27:59.534Z,39.88
2023-02-09T22:30:36.224Z,37.60
2023-02-09T22:33:32.783Z,39.33
2023-02-09T22:36:25.837Z,44.65
2023-02-09T22:39:18.437Z,27.92
2023-02-09T22:42:10.012Z,30.88
2023-02-09T22:44:51.190Z,31.38
2023-02-09T22:50:30.511Z,36.15
2023-02-09T22:53:03.650Z,42.40
2023-02-09T22:55:46.532Z,35.72
2023-02-09T22:58:20.927Z,42.13
2023-02-09T23:00:52.285Z,53.47
2023-02-09T23:03:40.827Z,27.38
2023-02-09T23:06:36.202Z,29.45
2023-02-09T23:09:15.761Z,27.23
2023-02-09T23:11:57.595Z,28.20
2023-02-09T23:14:32.884Z,37.55
2023-02-09T23:17:20.397Z,41.10
2023-02-09T23:20:15.473Z,27.40
2023-02-09T23:22:59.279Z,33.55
2023-02-09T23:25:31.509Z,29.87
2023-02-09T23:28:04.894Z,27.90
2023-02-09T23:30:38.881Z,26.20
2023-02-09T23:33:25.797Z,43.50
2023-02-09T23:36:15.656Z,28.48
2023-02-09T23:39:01.653Z,42.85
2023-02-09T23:41:32.009Z,29.35
2023-02-09T23:44:01.456Z,27.33
2023-02-09T23:46:30.208Z,41.97
2023-02-09T23:48:59.056Z,35.47
2023-02-09T23:51:29.837Z,32.22
2023-02-09T23:54:01.098Z,25.42
2023-02-09T23:56:31.805Z,21.27
2023-02-09T23:58:59.889Z,28.42
